sensor_id;sensor_type;location;lat;lon;timestamp;temperature;humidity
6421;DHT22;3243;50.958;7.012;2022-08-19T00:02:00;19.70;1.00
6421;DHT22;3243;50.958;7.012;2022-08-19T00:04:32;19.70;1.00
6421;DHT22;3243;50.958;7.012;2022-08-19T00:07:03;19.70;99.90
6421;DHT22;3243;50.958;7.012;2022-08-19T00:09:30;19.60;99.90
6421;DHT22;3243;50.958;7.012;2022-08-19T00:11:57;19.50;99.90
6421;DHT22;3243;50.958;7.012;2022-08-19T00:14:25;19.60;1.00
6421;DHT22;3243;50.958;7.012;2022-08-19T00:16:53;19.60;99.90
6421;DHT22;3243;50.958;7.012;2022-08-19T00:19:21;19.50;1.00
6421;DHT22;3243;50.958;7.012;2022-08-19T00:21:49;19.50;1.00
6421;DHT22;3243;50.958;7.012;2022-08-19T00:24:16;19.50;99.90
6421;DHT22;3243;50.958;7.012;2022-08-19T00:26:44;19.50;1.00
6421;DHT22;3243;50.958;7.012;2022-08-19T00:29:13;19.40;1.00
6421;DHT22;3243;50.958;7.012;2022-08-19T00:31:41;19.40;99.90
6421;DHT22;3243;50.958;7.012;2022-08-19T00:34:10;19.40;99.90
6421;DHT22;3243;50.958;7.012;2022-08-19T00:36:38;19.40;99.90
6421;DHT22;3243;50.958;7.012;2022-08-19T00:39:06;19.30;99.90
6421;DHT22;3243;50.958;7.012;2022-08-19T00:41:33;19.30;99.90
6421;DHT22;3243;50.958;7.012;2022-08-19T00:44:07;19.30;1.00
6421;DHT22;3243;50.958;7.012;2022-08-19T00:46:36;19.20;40.40
6421;DHT22;3243;50.958;7.012;2022-08-19T00:49:32;19.30;1.00
6421;DHT22;3243;50.958;7.012;2022-08-19T00:52:14;19.30;99.90
6421;DHT22;3243;50.958;7.012;2022-08-19T00:54:42;19.30;1.00
6421;DHT22;3243;50.958;7.012;2022-08-19T00:57:12;19.20;99.90
6421;DHT22;3243;50.958;7.012;2022-08-19T00:59:42;19.10;1.00
6421;DHT22;3243;50.958;7.012;2022-08-19T01:02:29;19.20;99.90
6421;DHT22;3243;50.958;7.012;2022-08-19T01:04:56;19.20;22.50
6421;DHT22;3243;50.958;7.012;2022-08-19T01:07:23;19.10;99.90
6421;DHT22;3243;50.958;7.012;2022-08-19T01:09:50;19.10;99.90
6421;DHT22;3243;50.958;7.012;2022-08-19T01:12:17;19.00;1.00
6421;DHT22;3243;50.958;7.012;2022-08-19T01:14:45;19.10;1.00
6421;DHT22;3243;50.958;7.012;2022-08-19T01:17:14;19.00;99.90
6421;DHT22;3243;50.958;7.012;2022-08-19T01:19:43;19.00;1.00
6421;DHT22;3243;50.958;7.012;2022-08-19T01:22:40;19.00;1.00
6421;DHT22;3243;50.958;7.012;2022-08-19T01:25:09;19.00;1.00
6421;DHT22;3243;50.958;7.012;2022-08-19T01:27:43;19.00;99.90
6421;DHT22;3243;50.958;7.012;2022-08-19T01:30:26;19.00;1.00
6421;DHT22;3243;50.958;7.012;2022-08-19T01:32:54;18.90;99.90
6421;DHT22;3243;50.958;7.012;2022-08-19T01:35:24;19.00;99.90
6421;DHT22;3243;50.958;7.012;2022-08-19T01:37:58;18.80;1.00
6421;DHT22;3243;50.958;7.012;2022-08-19T01:40:31;18.80;99.90
6421;DHT22;3243;50.958;7.012;2022-08-19T01:43:00;18.80;99.90
6421;DHT22;3243;50.958;7.012;2022-08-19T01:45:29;18.70;99.90
6421;DHT22;3243;50.958;7.012;2022-08-19T01:47:57;18.70;99.90
6421;DHT22;3243;50.958;7.012;2022-08-19T01:50:29;18.70;99.90
6421;DHT22;3243;50.958;7.012;2022-08-19T01:52:56;18.70;1.00
6421;DHT22;3243;50.958;7.012;2022-08-19T01:55:33;18.70;1.00
6421;DHT22;3243;50.958;7.012;2022-08-19T01:58:02;18.60;1.00
6421;DHT22;3243;50.958;7.012;2022-08-19T02:00:32;18.60;1.00
6421;DHT22;3243;50.958;7.012;2022-08-19T02:02:59;18.60;99.90
6421;DHT22;3243;50.958;7.012;2022-08-19T02:05:27;18.60;99.90
6421;DHT22;3243;50.958;7.012;2022-08-19T02:07:56;18.50;99.90
6421;DHT22;3243;50.958;7.012;2022-08-19T02:10:23;18.40;99.90
6421;DHT22;3243;50.958;7.012;2022-08-19T02:12:50;18.40;99.90
6421;DHT22;3243;50.958;7.012;2022-08-19T02:15:18;18.40;99.90
6421;DHT22;3243;50.958;7.012;2022-08-19T02:17:46;18.40;99.90
6421;DHT22;3243;50.958;7.012;2022-08-19T02:20:14;18.30;99.90
6421;DHT22;3243;50.958;7.012;2022-08-19T02:22:41;18.40;99.90
6421;DHT22;3243;50.958;7.012;2022-08-19T02:25:10;18.40;99.90
6421;DHT22;3243;50.958;7.012;2022-08-19T02:27:39;18.40;99.90
6421;DHT22;3243;50.958;7.012;2022-08-19T02:30:09;18.40;99.90
6421;DHT22;3243;50.958;7.012;2022-08-19T02:32:39;18.30;99.90
6421;DHT22;3243;50.958;7.012;2022-08-19T02:35:20;18.30;99.90
6421;DHT22;3243;50.958;7.012;2022-08-19T02:37:48;18.30;99.90
6421;DHT22;3243;50.958;7.012;2022-08-19T02:40:34;18.30;99.90
6421;DHT22;3243;50.958;7.012;2022-08-19T02:43:03;18.30;99.90
6421;DHT22;3243;50.958;7.012;2022-08-19T02:45:37;18.30;99.90
6421;DHT22;3243;50.958;7.012;2022-08-19T02:48:07;18.30;99.90
6421;DHT22;3243;50.958;7.012;2022-08-19T02:50:49;18.20;99.90
6421;DHT22;3243;50.958;7.012;2022-08-19T02:53:24;18.10;99.90
6421;DHT22;3243;50.958;7.012;2022-08-19T02:55:51;18.10;99.90
6421;DHT22;3243;50.958;7.012;2022-08-19T02:58:20;18.10;99.90
6421;DHT22;3243;50.958;7.012;2022-08-19T03:00:54;18.10;99.90
6421;DHT22;3243;50.958;7.012;2022-08-19T03:03:22;18.10;99.90
6421;DHT22;3243;50.958;7.012;2022-08-19T03:05:49;18.10;99.90
6421;DHT22;3243;50.958;7.012;2022-08-19T03:08:23;18.30;99.90
6421;DHT22;3243;50.958;7.012;2022-08-19T03:10:50;18.30;99.90
6421;DHT22;3243;50.958;7.012;2022-08-19T03:13:18;18.20;99.90
6421;DHT22;3243;50.958;7.012;2022-08-19T03:15:46;18.30;99.90
6421;DHT22;3243;50.958;7.012;2022-08-19T03:18:14;18.30;99.90
6421;DHT22;3243;50.958;7.012;2022-08-19T03:20:49;18.30;99.90
6421;DHT22;3243;50.958;7.012;2022-08-19T03:23:16;18.30;99.90
6421;DHT22;3243;50.958;7.012;2022-08-19T03:25:46;18.30;99.90
6421;DHT22;3243;50.958;7.012;2022-08-19T03:28:33;18.30;99.90
6421;DHT22;3243;50.958;7.012;2022-08-19T03:31:06;18.20;53.90
6421;DHT22;3243;50.958;7.012;2022-08-19T03:33:54;18.20;91.50
6421;DHT22;3243;50.958;7.012;2022-08-19T03:36:23;18.20;48.30
6421;DHT22;3243;50.958;7.012;2022-08-19T03:38:54;18.00;75.00
6421;DHT22;3243;50.958;7.012;2022-08-19T03:41:31;18.00;47.30
6421;DHT22;3243;50.958;7.012;2022-08-19T03:44:11;18.00;4.50
6421;DHT22;3243;50.958;7.012;2022-08-19T03:46:44;18.00;1.00
6421;DHT22;3243;50.958;7.012;2022-08-19T03:49:11;18.00;99.90
6421;DHT22;3243;50.958;7.012;2022-08-19T03:51:41;16.00;99.90
6421;DHT22;3243;50.958;7.012;2022-08-19T03:54:12;17.90;99.90
6421;DHT22;3243;50.958;7.012;2022-08-19T03:56:40;20.40;99.90
6421;DHT22;3243;50.958;7.012;2022-08-19T03:59:12;17.80;99.90
6421;DHT22;3243;50.958;7.012;2022-08-19T04:01:40;17.70;99.90
6421;DHT22;3243;50.958;7.012;2022-08-19T04:04:07;17.70;99.90
6421;DHT22;3243;50.958;7.012;2022-08-19T04:06:37;17.50;1.00
6421;DHT22;3243;50.958;7.012;2022-08-19T04:09:09;17.60;1.00
6421;DHT22;3243;50.958;7.012;2022-08-19T04:11:40;17.60;1.00
6421;DHT22;3243;50.958;7.012;2022-08-19T04:14:16;17.50;1.00
6421;DHT22;3243;50.958;7.012;2022-08-19T04:16:43;17.50;1.00
6421;DHT22;3243;50.958;7.012;2022-08-19T04:19:11;17.50;1.00
6421;DHT22;3243;50.958;7.012;2022-08-19T04:21:37;17.40;1.00
6421;DHT22;3243;50.958;7.012;2022-08-19T04:24:05;17.40;1.00
6421;DHT22;3243;50.958;7.012;2022-08-19T04:26:35;17.50;1.00
6421;DHT22;3243;50.958;7.012;2022-08-19T04:29:13;17.50;1.00
6421;DHT22;3243;50.958;7.012;2022-08-19T04:31:42;17.50;99.90
6421;DHT22;3243;50.958;7.012;2022-08-19T04:34:11;17.50;99.90
6421;DHT22;3243;50.958;7.012;2022-08-19T04:36:40;17.50;99.90
6421;DHT22;3243;50.958;7.012;2022-08-19T04:39:09;17.60;99.90
6421;DHT22;3243;50.958;7.012;2022-08-19T04:41:37;17.50;99.90
6421;DHT22;3243;50.958;7.012;2022-08-19T04:44:22;17.60;1.00
6421;DHT22;3243;50.958;7.012;2022-08-19T04:46:50;17.60;99.90
6421;DHT22;3243;50.958;7.012;2022-08-19T04:49:22;17.70;99.90
6421;DHT22;3243;50.958;7.012;2022-08-19T04:54:18;17.80;1.00
6421;DHT22;3243;50.958;7.012;2022-08-19T04:57:06;17.90;1.00
6421;DHT22;3243;50.958;7.012;2022-08-19T04:59:36;17.90;99.90
6421;DHT22;3243;50.958;7.012;2022-08-19T05:02:04;17.90;99.90
6421;DHT22;3243;50.958;7.012;2022-08-19T05:04:31;18.00;99.90
6421;DHT22;3243;50.958;7.012;2022-08-19T05:06:59;18.10;1.00
6421;DHT22;3243;50.958;7.012;2022-08-19T05:09:29;18.30;99.90
6421;DHT22;3243;50.958;7.012;2022-08-19T05:12:17;18.30;88.90
6421;DHT22;3243;50.958;7.012;2022-08-19T05:22:46;18.50;99.90
6421;DHT22;3243;50.958;7.012;2022-08-19T05:25:18;18.60;67.60
6421;DHT22;3243;50.958;7.012;2022-08-19T05:27:46;18.70;1.00
6421;DHT22;3243;50.958;7.012;2022-08-19T05:30:14;18.80;75.70
6421;DHT22;3243;50.958;7.012;2022-08-19T05:35:08;18.90;1.00
6421;DHT22;3243;50.958;7.012;2022-08-19T05:37:36;19.10;99.90
6421;DHT22;3243;50.958;7.012;2022-08-19T05:40:03;19.10;99.90
6421;DHT22;3243;50.958;7.012;2022-08-19T05:42:30;19.30;99.90
6421;DHT22;3243;50.958;7.012;2022-08-19T05:44:57;19.30;1.00
6421;DHT22;3243;50.958;7.012;2022-08-19T05:47:24;19.40;1.00
6421;DHT22;3243;50.958;7.012;2022-08-19T05:52:18;19.50;1.00
6421;DHT22;3243;50.958;7.012;2022-08-19T05:54:53;19.60;99.90
6421;DHT22;3243;50.958;7.012;2022-08-19T05:57:23;19.60;1.00
6421;DHT22;3243;50.958;7.012;2022-08-19T05:59:51;19.70;99.90
6421;DHT22;3243;50.958;7.012;2022-08-19T06:02:23;19.60;1.00
6421;DHT22;3243;50.958;7.012;2022-08-19T06:07:18;19.70;99.90
6421;DHT22;3243;50.958;7.012;2022-08-19T06:09:45;19.90;1.00
6421;DHT22;3243;50.958;7.012;2022-08-19T06:12:33;19.90;1.00
6421;DHT22;3243;50.958;7.012;2022-08-19T06:15:05;20.10;99.90
6421;DHT22;3243;50.958;7.012;2022-08-19T06:17:32;20.20;99.90
6421;DHT22;3243;50.958;7.012;2022-08-19T06:20:06;20.30;1.00
6421;DHT22;3243;50.958;7.012;2022-08-19T06:22:38;20.50;1.00
6421;DHT22;3243;50.958;7.012;2022-08-19T06:25:05;20.70;1.00
6421;DHT22;3243;50.958;7.012;2022-08-19T06:27:32;20.90;99.90
6421;DHT22;3243;50.958;7.012;2022-08-19T06:30:00;20.90;1.00
6421;DHT22;3243;50.958;7.012;2022-08-19T06:32:27;21.10;99.90
6421;DHT22;3243;50.958;7.012;2022-08-19T06:34:54;21.10;99.90
6421;DHT22;3243;50.958;7.012;2022-08-19T06:37:21;21.30;1.00
6421;DHT22;3243;50.958;7.012;2022-08-19T06:39:48;21.40;99.90
6421;DHT22;3243;50.958;7.012;2022-08-19T06:42:16;21.50;1.00
6421;DHT22;3243;50.958;7.012;2022-08-19T06:44:47;21.60;1.00
6421;DHT22;3243;50.958;7.012;2022-08-19T06:47:20;21.60;93.00
6421;DHT22;3243;50.958;7.012;2022-08-19T06:49:53;21.70;1.00
6421;DHT22;3243;50.958;7.012;2022-08-19T06:52:27;21.60;1.00
6421;DHT22;3243;50.958;7.012;2022-08-19T06:57:26;21.90;99.90
6421;DHT22;3243;50.958;7.012;2022-08-19T06:59:53;22.10;99.90
6421;DHT22;3243;50.958;7.012;2022-08-19T07:02:21;22.30;99.90
6421;DHT22;3243;50.958;7.012;2022-08-19T07:04:53;22.30;99.90
6421;DHT22;3243;50.958;7.012;2022-08-19T07:09:49;22.30;99.90
6421;DHT22;3243;50.958;7.012;2022-08-19T07:12:28;22.40;99.90
6421;DHT22;3243;50.958;7.012;2022-08-19T07:14:57;22.70;99.90
6421;DHT22;3243;50.958;7.012;2022-08-19T07:17:25;22.70;18.20
6421;DHT22;3243;50.958;7.012;2022-08-19T07:19:52;22.90;1.00
6421;DHT22;3243;50.958;7.012;2022-08-19T07:22:21;23.10;4.30
6421;DHT22;3243;50.958;7.012;2022-08-19T07:24:50;23.00;99.90
6421;DHT22;3243;50.958;7.012;2022-08-19T07:27:18;23.20;1.00
6421;DHT22;3243;50.958;7.012;2022-08-19T07:29:52;23.20;99.90
6421;DHT22;3243;50.958;7.012;2022-08-19T07:32:23;23.40;99.90
6421;DHT22;3243;50.958;7.012;2022-08-19T07:37:23;23.60;99.90
6421;DHT22;3243;50.958;7.012;2022-08-19T07:39:53;23.70;99.90
6421;DHT22;3243;50.958;7.012;2022-08-19T07:42:20;23.90;99.90
6421;DHT22;3243;50.958;7.012;2022-08-19T07:44:47;23.90;99.90
6421;DHT22;3243;50.958;7.012;2022-08-19T07:47:17;23.90;1.00
6421;DHT22;3243;50.958;7.012;2022-08-19T07:50:07;24.00;1.00
6421;DHT22;3243;50.958;7.012;2022-08-19T07:52:36;24.10;99.90
6421;DHT22;3243;50.958;7.012;2022-08-19T07:55:07;24.00;99.90
6421;DHT22;3243;50.958;7.012;2022-08-19T07:57:54;23.90;99.90
6421;DHT22;3243;50.958;7.012;2022-08-19T08:02:51;23.60;99.90
6421;DHT22;3243;50.958;7.012;2022-08-19T08:05:21;23.40;1.00
6421;DHT22;3243;50.958;7.012;2022-08-19T08:13:24;23.00;99.90
6421;DHT22;3243;50.958;7.012;2022-08-19T08:20:56;22.80;99.90
6421;DHT22;3243;50.958;7.012;2022-08-19T08:23:24;22.70;1.00
6421;DHT22;3243;50.958;7.012;2022-08-19T08:25:57;22.60;99.90
6421;DHT22;3243;50.958;7.012;2022-08-19T08:28:25;22.50;1.00
6421;DHT22;3243;50.958;7.012;2022-08-19T08:30:56;22.50;99.90
6421;DHT22;3243;50.958;7.012;2022-08-19T08:33:26;22.50;99.90
6421;DHT22;3243;50.958;7.012;2022-08-19T08:36:10;22.60;99.90
6421;DHT22;3243;50.958;7.012;2022-08-19T08:38:37;22.70;1.00
6421;DHT22;3243;50.958;7.012;2022-08-19T08:43:40;23.20;1.00
6421;DHT22;3243;50.958;7.012;2022-08-19T08:46:18;23.40;62.10
6421;DHT22;3243;50.958;7.012;2022-08-19T08:51:33;23.70;99.90
6421;DHT22;3243;50.958;7.012;2022-08-19T08:54:04;23.80;99.90
6421;DHT22;3243;50.958;7.012;2022-08-19T08:56:38;23.80;99.90
6421;DHT22;3243;50.958;7.012;2022-08-19T08:59:16;24.00;99.90
6421;DHT22;3243;50.958;7.012;2022-08-19T09:01:45;24.10;99.90
6421;DHT22;3243;50.958;7.012;2022-08-19T09:04:13;24.30;99.90
6421;DHT22;3243;50.958;7.012;2022-08-19T09:09:18;24.30;44.90
6421;DHT22;3243;50.958;7.012;2022-08-19T09:12:00;24.40;1.00
6421;DHT22;3243;50.958;7.012;2022-08-19T09:14:57;24.50;1.00
6421;DHT22;3243;50.958;7.012;2022-08-19T09:17:29;24.60;1.00
6421;DHT22;3243;50.958;7.012;2022-08-19T09:22:40;24.90;77.90
6421;DHT22;3243;50.958;7.012;2022-08-19T09:25:14;25.20;99.90
6421;DHT22;3243;50.958;7.012;2022-08-19T09:27:42;25.30;99.90
6421;DHT22;3243;50.958;7.012;2022-08-19T09:30:17;25.60;99.90
6421;DHT22;3243;50.958;7.012;2022-08-19T09:32:45;25.50;99.90
6421;DHT22;3243;50.958;7.012;2022-08-19T09:35:12;25.60;99.90
6421;DHT22;3243;50.958;7.012;2022-08-19T09:37:40;25.50;99.90
6421;DHT22;3243;50.958;7.012;2022-08-19T09:40:10;25.40;99.90
6421;DHT22;3243;50.958;7.012;2022-08-19T09:45:18;25.30;99.90
6421;DHT22;3243;50.958;7.012;2022-08-19T09:47:51;25.40;99.90
6421;DHT22;3243;50.958;7.012;2022-08-19T09:50:20;25.40;99.90
6421;DHT22;3243;50.958;7.012;2022-08-19T09:52:47;25.30;99.90
6421;DHT22;3243;50.958;7.012;2022-08-19T09:55:24;25.30;99.90
6421;DHT22;3243;50.958;7.012;2022-08-19T09:58:00;25.20;99.90
6421;DHT22;3243;50.958;7.012;2022-08-19T10:00:27;25.10;99.90
6421;DHT22;3243;50.958;7.012;2022-08-19T10:05:21;25.00;99.90
6421;DHT22;3243;50.958;7.012;2022-08-19T10:08:08;25.10;99.90
6421;DHT22;3243;50.958;7.012;2022-08-19T10:10:42;25.20;99.90
6421;DHT22;3243;50.958;7.012;2022-08-19T10:13:16;24.10;99.90
6421;DHT22;3243;50.958;7.012;2022-08-19T10:15:44;25.20;99.90
6421;DHT22;3243;50.958;7.012;2022-08-19T10:20:46;25.20;99.90
6421;DHT22;3243;50.958;7.012;2022-08-19T10:23:19;25.20;99.90
6421;DHT22;3243;50.958;7.012;2022-08-19T10:25:47;25.20;99.90
6421;DHT22;3243;50.958;7.012;2022-08-19T10:28:14;25.40;99.90
6421;DHT22;3243;50.958;7.012;2022-08-19T10:30:41;25.50;99.90
6421;DHT22;3243;50.958;7.012;2022-08-19T10:33:09;25.40;99.90
6421;DHT22;3243;50.958;7.012;2022-08-19T10:35:37;25.50;99.90
6421;DHT22;3243;50.958;7.012;2022-08-19T10:38:23;25.60;99.90
6421;DHT22;3243;50.958;7.012;2022-08-19T10:40:58;25.60;99.90
6421;DHT22;3243;50.958;7.012;2022-08-19T10:43:25;25.70;99.90
6421;DHT22;3243;50.958;7.012;2022-08-19T10:45:53;25.90;99.90
6421;DHT22;3243;50.958;7.012;2022-08-19T10:48:22;25.80;99.90
6421;DHT22;3243;50.958;7.012;2022-08-19T10:50:49;25.80;99.90
6421;DHT22;3243;50.958;7.012;2022-08-19T10:53:34;25.80;99.90
6421;DHT22;3243;50.958;7.012;2022-08-19T10:56:01;25.90;99.90
6421;DHT22;3243;50.958;7.012;2022-08-19T10:58:47;26.20;99.90
6421;DHT22;3243;50.958;7.012;2022-08-19T11:01:14;26.80;99.90
6421;DHT22;3243;50.958;7.012;2022-08-19T11:03:41;27.30;99.90
6421;DHT22;3243;50.958;7.012;2022-08-19T11:06:08;27.20;99.90
6421;DHT22;3243;50.958;7.012;2022-08-19T11:08:36;26.70;99.90
6421;DHT22;3243;50.958;7.012;2022-08-19T11:11:08;26.60;99.90
6421;DHT22;3243;50.958;7.012;2022-08-19T11:13:38;26.50;99.90
6421;DHT22;3243;50.958;7.012;2022-08-19T11:16:12;26.30;99.90
6421;DHT22;3243;50.958;7.012;2022-08-19T11:18:46;26.20;99.90
6421;DHT22;3243;50.958;7.012;2022-08-19T11:21:29;26.00;99.90
6421;DHT22;3243;50.958;7.012;2022-08-19T11:24:01;25.80;99.90
6421;DHT22;3243;50.958;7.012;2022-08-19T11:26:30;25.80;99.90
6421;DHT22;3243;50.958;7.012;2022-08-19T11:28:58;25.70;99.90
6421;DHT22;3243;50.958;7.012;2022-08-19T11:31:29;25.80;99.90
6421;DHT22;3243;50.958;7.012;2022-08-19T11:33:58;25.70;99.90
6421;DHT22;3243;50.958;7.012;2022-08-19T11:36:26;25.70;99.90
6421;DHT22;3243;50.958;7.012;2022-08-19T11:38:54;26.00;99.90
6421;DHT22;3243;50.958;7.012;2022-08-19T11:41:22;26.20;99.90
6421;DHT22;3243;50.958;7.012;2022-08-19T11:43:51;26.60;99.90
6421;DHT22;3243;50.958;7.012;2022-08-19T11:46:19;26.50;99.90
6421;DHT22;3243;50.958;7.012;2022-08-19T11:48:46;26.60;99.90
6421;DHT22;3243;50.958;7.012;2022-08-19T11:51:17;26.40;99.90
6421;DHT22;3243;50.958;7.012;2022-08-19T11:53:45;26.40;99.90
6421;DHT22;3243;50.958;7.012;2022-08-19T11:56:12;26.60;99.90
6421;DHT22;3243;50.958;7.012;2022-08-19T11:58:40;26.50;99.90
6421;DHT22;3243;50.958;7.012;2022-08-19T12:01:15;26.30;99.90
6421;DHT22;3243;50.958;7.012;2022-08-19T12:03:44;26.20;99.90
6421;DHT22;3243;50.958;7.012;2022-08-19T12:06:15;26.30;99.90
6421;DHT22;3243;50.958;7.012;2022-08-19T12:08:44;26.50;99.90
6421;DHT22;3243;50.958;7.012;2022-08-19T12:11:12;26.50;99.90
6421;DHT22;3243;50.958;7.012;2022-08-19T12:13:41;26.50;99.90
6421;DHT22;3243;50.958;7.012;2022-08-19T12:16:13;26.40;99.90
6421;DHT22;3243;50.958;7.012;2022-08-19T12:18:42;26.20;99.90
6421;DHT22;3243;50.958;7.012;2022-08-19T12:21:16;26.10;99.90
6421;DHT22;3243;50.958;7.012;2022-08-19T12:23:43;26.10;99.90
6421;DHT22;3243;50.958;7.012;2022-08-19T12:26:12;26.00;99.90
6421;DHT22;3243;50.958;7.012;2022-08-19T12:28:39;25.80;99.90
6421;DHT22;3243;50.958;7.012;2022-08-19T12:31:06;25.80;99.90
6421;DHT22;3243;50.958;7.012;2022-08-19T12:33:32;25.90;99.90
6421;DHT22;3243;50.958;7.012;2022-08-19T12:36:02;26.10;99.90
6421;DHT22;3243;50.958;7.012;2022-08-19T12:38:29;26.20;99.90
6421;DHT22;3243;50.958;7.012;2022-08-19T12:40:56;26.30;99.90
6421;DHT22;3243;50.958;7.012;2022-08-19T12:43:26;26.40;99.90
6421;DHT22;3243;50.958;7.012;2022-08-19T12:45:53;26.50;99.90
6421;DHT22;3243;50.958;7.012;2022-08-19T12:48:21;26.40;99.90
6421;DHT22;3243;50.958;7.012;2022-08-19T12:51:08;26.30;99.90
6421;DHT22;3243;50.958;7.012;2022-08-19T12:53:36;26.30;99.90
6421;DHT22;3243;50.958;7.012;2022-08-19T12:56:05;26.40;99.90
6421;DHT22;3243;50.958;7.012;2022-08-19T12:58:38;26.60;99.90
6421;DHT22;3243;50.958;7.012;2022-08-19T13:01:13;27.00;99.90
6421;DHT22;3243;50.958;7.012;2022-08-19T13:03:45;27.40;99.90
6421;DHT22;3243;50.958;7.012;2022-08-19T13:06:13;27.50;99.90
6421;DHT22;3243;50.958;7.012;2022-08-19T13:08:44;27.80;99.90
6421;DHT22;3243;50.958;7.012;2022-08-19T13:11:15;27.80;99.90
6421;DHT22;3243;50.958;7.012;2022-08-19T13:13:46;27.50;99.90
6421;DHT22;3243;50.958;7.012;2022-08-19T13:16:14;27.10;99.90
6421;DHT22;3243;50.958;7.012;2022-08-19T13:18:42;26.80;99.90
6421;DHT22;3243;50.958;7.012;2022-08-19T13:21:10;26.60;99.90
6421;DHT22;3243;50.958;7.012;2022-08-19T13:23:41;26.50;99.90
6421;DHT22;3243;50.958;7.012;2022-08-19T13:26:09;26.40;99.90
6421;DHT22;3243;50.958;7.012;2022-08-19T13:28:36;26.40;99.90
6421;DHT22;3243;50.958;7.012;2022-08-19T13:31:24;26.40;99.90
6421;DHT22;3243;50.958;7.012;2022-08-19T13:34:10;26.30;99.90
6421;DHT22;3243;50.958;7.012;2022-08-19T13:36:38;26.10;99.90
6421;DHT22;3243;50.958;7.012;2022-08-19T13:39:06;26.00;99.90
6421;DHT22;3243;50.958;7.012;2022-08-19T13:41:34;26.00;99.90
6421;DHT22;3243;50.958;7.012;2022-08-19T13:44:01;26.00;99.90
6421;DHT22;3243;50.958;7.012;2022-08-19T13:46:28;26.20;99.90
6421;DHT22;3243;50.958;7.012;2022-08-19T13:48:56;26.30;99.90
6421;DHT22;3243;50.958;7.012;2022-08-19T13:51:23;26.40;99.90
6421;DHT22;3243;50.958;7.012;2022-08-19T13:53:50;26.40;99.90
6421;DHT22;3243;50.958;7.012;2022-08-19T13:56:19;26.40;99.90
6421;DHT22;3243;50.958;7.012;2022-08-19T13:58:51;26.40;99.90
6421;DHT22;3243;50.958;7.012;2022-08-19T14:01:24;26.40;99.90
6421;DHT22;3243;50.958;7.012;2022-08-19T14:03:51;26.40;99.90
6421;DHT22;3243;50.958;7.012;2022-08-19T14:06:19;26.40;99.90
6421;DHT22;3243;50.958;7.012;2022-08-19T14:08:46;26.50;99.90
6421;DHT22;3243;50.958;7.012;2022-08-19T14:11:13;26.50;99.90
6421;DHT22;3243;50.958;7.012;2022-08-19T14:13:40;26.60;99.90
6421;DHT22;3243;50.958;7.012;2022-08-19T14:16:12;26.60;99.90
6421;DHT22;3243;50.958;7.012;2022-08-19T14:18:39;26.60;99.90
6421;DHT22;3243;50.958;7.012;2022-08-19T14:21:07;26.60;99.90
6421;DHT22;3243;50.958;7.012;2022-08-19T14:23:34;26.60;99.90
6421;DHT22;3243;50.958;7.012;2022-08-19T14:26:11;26.50;99.90
6421;DHT22;3243;50.958;7.012;2022-08-19T14:28:40;26.50;99.90
6421;DHT22;3243;50.958;7.012;2022-08-19T14:31:12;26.60;99.90
6421;DHT22;3243;50.958;7.012;2022-08-19T14:33:40;26.60;99.90
6421;DHT22;3243;50.958;7.012;2022-08-19T14:36:07;26.70;99.90
6421;DHT22;3243;50.958;7.012;2022-08-19T14:38:34;26.80;99.90
6421;DHT22;3243;50.958;7.012;2022-08-19T14:41:21;26.50;99.90
6421;DHT22;3243;50.958;7.012;2022-08-19T14:43:50;26.50;99.90
6421;DHT22;3243;50.958;7.012;2022-08-19T14:46:20;26.60;99.90
6421;DHT22;3243;50.958;7.012;2022-08-19T14:48:48;26.50;99.90
6421;DHT22;3243;50.958;7.012;2022-08-19T14:51:18;26.30;99.90
6421;DHT22;3243;50.958;7.012;2022-08-19T14:53:46;26.20;99.90
6421;DHT22;3243;50.958;7.012;2022-08-19T14:56:21;26.20;99.90
6421;DHT22;3243;50.958;7.012;2022-08-19T14:58:48;26.10;99.90
6421;DHT22;3243;50.958;7.012;2022-08-19T15:01:20;26.20;99.90
6421;DHT22;3243;50.958;7.012;2022-08-19T15:03:48;26.40;99.90
6421;DHT22;3243;50.958;7.012;2022-08-19T15:06:16;26.40;99.90
6421;DHT22;3243;50.958;7.012;2022-08-19T15:08:43;26.40;99.90
6421;DHT22;3243;50.958;7.012;2022-08-19T15:11:14;26.50;99.90
6421;DHT22;3243;50.958;7.012;2022-08-19T15:13:42;26.50;99.90
6421;DHT22;3243;50.958;7.012;2022-08-19T15:16:09;26.60;99.90
6421;DHT22;3243;50.958;7.012;2022-08-19T15:18:44;26.70;99.90
6421;DHT22;3243;50.958;7.012;2022-08-19T15:21:13;26.60;99.90
6421;DHT22;3243;50.958;7.012;2022-08-19T15:23:55;26.60;99.90
6421;DHT22;3243;50.958;7.012;2022-08-19T15:26:22;26.60;99.90
6421;DHT22;3243;50.958;7.012;2022-08-19T15:28:49;26.60;99.90
6421;DHT22;3243;50.958;7.012;2022-08-19T15:31:18;26.50;99.90
6421;DHT22;3243;50.958;7.012;2022-08-19T15:33:56;26.50;99.90
6421;DHT22;3243;50.958;7.012;2022-08-19T15:36:26;26.50;99.90
6421;DHT22;3243;50.958;7.012;2022-08-19T15:38:54;26.50;99.90
6421;DHT22;3243;50.958;7.012;2022-08-19T15:41:24;26.50;99.90
6421;DHT22;3243;50.958;7.012;2022-08-19T15:44:12;26.40;99.90
6421;DHT22;3243;50.958;7.012;2022-08-19T15:46:43;26.30;99.90
6421;DHT22;3243;50.958;7.012;2022-08-19T15:49:13;26.40;99.90
6421;DHT22;3243;50.958;7.012;2022-08-19T15:51:43;26.40;99.90
6421;DHT22;3243;50.958;7.012;2022-08-19T15:54:13;26.30;99.90
6421;DHT22;3243;50.958;7.012;2022-08-19T15:56:40;26.30;99.90
6421;DHT22;3243;50.958;7.012;2022-08-19T15:59:26;26.40;99.90
6421;DHT22;3243;50.958;7.012;2022-08-19T16:02:17;26.60;99.90
6421;DHT22;3243;50.958;7.012;2022-08-19T16:05:06;26.70;99.90
6421;DHT22;3243;50.958;7.012;2022-08-19T16:07:52;26.90;99.90
6421;DHT22;3243;50.958;7.012;2022-08-19T16:10:20;26.80;99.90
6421;DHT22;3243;50.958;7.012;2022-08-19T16:12:52;26.90;99.90
6421;DHT22;3243;50.958;7.012;2022-08-19T16:15:19;26.90;99.90
6421;DHT22;3243;50.958;7.012;2022-08-19T16:17:46;26.90;99.90
6421;DHT22;3243;50.958;7.012;2022-08-19T16:20:23;26.80;99.90
6421;DHT22;3243;50.958;7.012;2022-08-19T16:22:52;26.60;99.90
6421;DHT22;3243;50.958;7.012;2022-08-19T16:25:19;26.40;99.90
6421;DHT22;3243;50.958;7.012;2022-08-19T16:27:48;26.30;99.90
6421;DHT22;3243;50.958;7.012;2022-08-19T16:30:35;26.20;99.90
6421;DHT22;3243;50.958;7.012;2022-08-19T16:33:02;26.10;99.90
6421;DHT22;3243;50.958;7.012;2022-08-19T16:35:29;26.20;99.90
6421;DHT22;3243;50.958;7.012;2022-08-19T16:37:56;26.20;99.90
6421;DHT22;3243;50.958;7.012;2022-08-19T16:40:23;26.30;99.90
6421;DHT22;3243;50.958;7.012;2022-08-19T16:42:50;26.20;99.90
6421;DHT22;3243;50.958;7.012;2022-08-19T16:45:19;26.10;99.90
6421;DHT22;3243;50.958;7.012;2022-08-19T16:47:47;26.00;99.90
6421;DHT22;3243;50.958;7.012;2022-08-19T16:50:14;25.80;99.90
6421;DHT22;3243;50.958;7.012;2022-08-19T16:55:32;25.20;99.90
6421;DHT22;3243;50.958;7.012;2022-08-19T16:57:59;25.20;99.90
6421;DHT22;3243;50.958;7.012;2022-08-19T17:03:04;25.20;99.90
6421;DHT22;3243;50.958;7.012;2022-08-19T17:05:31;25.30;99.90
6421;DHT22;3243;50.958;7.012;2022-08-19T17:07:58;25.30;99.90
6421;DHT22;3243;50.958;7.012;2022-08-19T17:10:25;25.30;99.90
6421;DHT22;3243;50.958;7.012;2022-08-19T17:12:52;25.40;99.90
6421;DHT22;3243;50.958;7.012;2022-08-19T17:15:20;25.40;99.90
6421;DHT22;3243;50.958;7.012;2022-08-19T17:17:47;25.20;99.90
6421;DHT22;3243;50.958;7.012;2022-08-19T17:25:08;25.20;99.90
6421;DHT22;3243;50.958;7.012;2022-08-19T17:30:04;25.10;99.90
6421;DHT22;3243;50.958;7.012;2022-08-19T17:35:01;25.00;99.90
6421;DHT22;3243;50.958;7.012;2022-08-19T17:37:29;25.00;99.90
6421;DHT22;3243;50.958;7.012;2022-08-19T17:42:23;24.90;99.90